createdAt,value
2023-02-26T00:01:24.979Z,4.63
2023-02-26T00:03:52.712Z,4.20
2023-02-26T00:06:20.387Z,3.78
2023-02-26T00:08:47.101Z,3.88
2023-02-26T00:11:14.608Z,3.80
2023-02-26T00:13:44.048Z,3.47
2023-02-26T00:16:18.284Z,3.57
2023-02-26T00:18:45.217Z,3.63
2023-02-26T00:21:21.021Z,3.90
2023-02-26T00:23:48.357Z,3.80
2023-02-26T00:26:15.267Z,3.20
2023-02-26T00:28:42.683Z,3.20
2023-02-26T00:31:10.110Z,3.28
2023-02-26T00:33:37.440Z,2.67
2023-02-26T00:36:17.952Z,3.38
2023-02-26T00:38:54.959Z,2.83
2023-02-26T00:41:22.237Z,3.20
2023-02-26T00:43:49.530Z,2.95
2023-02-26T00:46:33.739Z,3.00
2023-02-26T00:49:12.219Z,2.75
2023-02-26T00:51:48.935Z,2.97
2023-02-26T00:54:22.414Z,3.30
2023-02-26T00:56:53.058Z,2.75
2023-02-26T00:59:20.808Z,3.00
2023-02-26T01:01:48.776Z,3.00
2023-02-26T01:04:18.012Z,2.90
2023-02-26T01:06:48.859Z,3.03
2023-02-26T01:09:28.057Z,3.20
2023-02-26T01:11:57.193Z,3.40
2023-02-26T01:14:24.913Z,2.80
2023-02-26T01:16:55.850Z,2.90
2023-02-26T01:19:22.481Z,3.10
2023-02-26T01:21:56.546Z,2.97
2023-02-26T01:24:25.712Z,2.53
2023-02-26T01:26:53.336Z,2.88
2023-02-26T01:29:20.517Z,2.80
2023-02-26T01:31:58.162Z,2.90
2023-02-26T01:34:34.450Z,2.78
2023-02-26T01:37:47.837Z,3.00
2023-02-26T01:40:46.553Z,2.83
2023-02-26T01:43:22.983Z,2.45
2023-02-26T01:46:20.707Z,2.60
2023-02-26T01:48:51.430Z,2.60
2023-02-26T01:51:37.324Z,2.67
2023-02-26T01:54:05.555Z,2.60
2023-02-26T01:56:32.766Z,2.58
2023-02-26T01:59:00.770Z,2.35
2023-02-26T02:01:27.623Z,2.40
2023-02-26T02:03:54.444Z,2.70
2023-02-26T02:06:25.403Z,2.75
2023-02-26T02:08:53.224Z,2.60
2023-02-26T02:11:20.455Z,2.75
2023-02-26T02:14:05.706Z,2.83
2023-02-26T02:17:14.345Z,2.40
2023-02-26T02:19:53.158Z,2.30
2023-02-26T02:22:47.563Z,2.70
2023-02-26T02:25:16.898Z,2.65
2023-02-26T02:28:21.430Z,2.43
2023-02-26T02:31:33.108Z,2.25
2023-02-26T02:34:28.364Z,2.50
2023-02-26T02:36:57.917Z,2.30
2023-02-26T02:39:46.694Z,1.80
2023-02-26T02:42:16.236Z,1.80
2023-02-26T02:44:47.988Z,2.15
2023-02-26T02:47:17.150Z,1.60
2023-02-26T02:49:51.482Z,1.67
2023-02-26T02:52:27.068Z,1.55
2023-02-26T02:55:01.826Z,1.77
2023-02-26T02:57:44.317Z,1.67
2023-02-26T03:00:15.746Z,1.35
2023-02-26T03:03:16.386Z,1.50
2023-02-26T03:05:43.303Z,1.40
2023-02-26T03:08:13.353Z,1.58
2023-02-26T03:10:40.243Z,1.90
2023-02-26T03:13:16.552Z,1.90
2023-02-26T03:15:58.989Z,1.90
2023-02-26T03:18:50.674Z,2.13
2023-02-26T03:21:56.062Z,2.30
2023-02-26T03:25:06.361Z,2.25
2023-02-26T03:27:52.213Z,2.08
2023-02-26T03:30:25.189Z,2.30
2023-02-26T03:33:05.792Z,2.20
2023-02-26T03:35:40.034Z,2.20
2023-02-26T03:38:11.886Z,2.42
2023-02-26T03:40:47.750Z,2.60
2023-02-26T03:43:22.083Z,2.70
2023-02-26T03:45:54.570Z,2.35
2023-02-26T03:48:26.543Z,2.67
2023-02-26T03:51:00.673Z,2.70
2023-02-26T03:54:16.627Z,2.70
2023-02-26T03:56:48.058Z,2.95
2023-02-26T03:59:18.258Z,2.58
2023-02-26T04:01:59.612Z,2.75
2023-02-26T04:04:49.970Z,2.70
2023-02-26T04:07:18.195Z,2.80
2023-02-26T04:09:50.764Z,2.40
2023-02-26T04:12:24.225Z,2.30
2023-02-26T04:14:55.524Z,2.25
2023-02-26T04:17:22.376Z,2.05
2023-02-26T04:19:49.192Z,2.10
2023-02-26T04:22:16.320Z,2.20
2023-02-26T04:24:43.056Z,2.00
2023-02-26T04:27:10.099Z,2.03
2023-02-26T04:29:37.645Z,2.00
2023-02-26T04:32:04.765Z,2.13
2023-02-26T04:34:31.648Z,2.15
2023-02-26T04:36:59.168Z,2.35
2023-02-26T04:39:26.102Z,2.30
2023-02-26T04:41:55.709Z,2.20
2023-02-26T04:44:22.571Z,2.20
2023-02-26T04:46:49.341Z,2.22
2023-02-26T04:49:16.012Z,2.10
2023-02-26T04:51:44.862Z,2.45
2023-02-26T04:54:14.466Z,2.60
2023-02-26T04:56:41.344Z,2.60
2023-02-26T04:59:08.254Z,2.70
2023-02-26T05:01:35.956Z,2.70
2023-02-26T05:04:05.083Z,2.80
2023-02-26T05:06:31.977Z,2.85
2023-02-26T05:08:58.678Z,2.80
2023-02-26T05:11:28.762Z,3.00
2023-02-26T05:13:56.269Z,2.90
2023-02-26T05:16:23.129Z,3.10
2023-02-26T05:18:50.164Z,2.90
2023-02-26T05:21:18.312Z,2.90
2023-02-26T05:23:45.128Z,3.10
2023-02-26T05:26:11.873Z,3.10
2023-02-26T05:28:38.769Z,3.10
2023-02-26T05:31:06.638Z,3.30
2023-02-26T05:33:33.437Z,3.30
2023-02-26T05:36:00.219Z,3.08
2023-02-26T05:38:26.898Z,3.03
2023-02-26T05:40:57.785Z,3.10
2023-02-26T05:43:25.029Z,2.85
2023-02-26T05:45:52.738Z,3.22
2023-02-26T05:48:19.685Z,2.95
2023-02-26T05:50:48.519Z,2.80
2023-02-26T05:53:15.374Z,2.70
2023-02-26T05:55:42.289Z,3.53
2023-02-26T05:58:09.051Z,3.25
2023-02-26T06:00:36.020Z,2.97
2023-02-26T06:03:02.867Z,2.95
2023-02-26T06:05:29.692Z,2.88
2023-02-26T06:07:56.347Z,2.83
2023-02-26T06:10:23.013Z,2.70
2023-02-26T06:12:49.733Z,3.22
2023-02-26T06:15:16.485Z,3.00
2023-02-26T06:17:43.183Z,2.90
2023-02-26T06:20:10.867Z,3.00
2023-02-26T06:22:40.597Z,3.33
2023-02-26T06:25:07.805Z,3.08
2023-02-26T06:27:34.516Z,2.90
2023-02-26T06:30:01.379Z,2.80
2023-02-26T06:32:30.697Z,3.13
2023-02-26T06:34:58.022Z,2.95
2023-02-26T06:37:24.939Z,3.15
2023-02-26T06:39:51.841Z,3.00
2023-02-26T06:42:20.139Z,3.00
2023-02-26T06:44:47.134Z,2.63
2023-02-26T06:47:13.934Z,2.88
2023-02-26T06:49:40.712Z,2.80
2023-02-26T06:52:07.411Z,2.80
2023-02-26T06:54:34.736Z,2.45
2023-02-26T06:57:03.492Z,3.10
2023-02-26T06:59:34.259Z,2.70
2023-02-26T07:02:01.880Z,3.40
2023-02-26T07:04:28.860Z,2.38
2023-02-26T07:06:55.830Z,2.80
2023-02-26T07:09:22.923Z,2.33
2023-02-26T07:11:49.858Z,2.25
2023-02-26T07:14:17.611Z,2.20
2023-02-26T07:16:44.870Z,2.22
2023-02-26T07:19:12.352Z,2.15
2023-02-26T07:21:39.983Z,2.40
2023-02-26T07:24:07.625Z,2.20
2023-02-26T07:26:35.226Z,2.40
2023-02-26T07:29:03.527Z,2.30
2023-02-26T07:31:31.040Z,2.33
2023-02-26T07:33:57.998Z,2.70
2023-02-26T07:36:25.027Z,2.10
2023-02-26T07:38:52.266Z,2.00
2023-02-26T07:41:19.258Z,2.10
2023-02-26T07:43:46.616Z,2.00
2023-02-26T07:46:13.864Z,2.35
2023-02-26T07:48:41.216Z,2.20
2023-02-26T07:51:08.653Z,2.00
2023-02-26T07:53:35.776Z,1.92
2023-02-26T07:56:03.226Z,1.92
2023-02-26T07:58:30.224Z,1.90
2023-02-26T08:00:59.870Z,2.20
2023-02-26T08:03:26.557Z,1.90
2023-02-26T08:05:53.531Z,1.73
2023-02-26T08:08:20.284Z,1.73
2023-02-26T08:10:47.051Z,1.60
2023-02-26T08:13:13.696Z,1.73
2023-02-26T08:15:41.876Z,1.63
2023-02-26T08:18:08.610Z,1.90
2023-02-26T08:20:35.344Z,1.80
2023-02-26T08:23:02.297Z,1.80
2023-02-26T08:25:29.008Z,1.70
2023-02-26T08:27:57.879Z,1.70
2023-02-26T08:30:25.350Z,1.70
2023-02-26T08:32:52.374Z,1.77
2023-02-26T08:35:19.229Z,1.60
2023-02-26T08:37:46.077Z,1.60
2023-02-26T08:40:15.265Z,1.60
2023-02-26T08:42:42.044Z,1.60
2023-02-26T08:45:09.444Z,1.83
2023-02-26T08:47:39.567Z,2.03
2023-02-26T08:50:10.965Z,2.30
2023-02-26T08:52:38.763Z,2.30
2023-02-26T08:55:05.912Z,2.78
2023-02-26T08:57:33.003Z,1.90
2023-02-26T08:59:59.740Z,1.65
2023-02-26T09:02:26.416Z,1.70
2023-02-26T09:04:53.421Z,1.60
2023-02-26T09:07:20.213Z,1.70
2023-02-26T09:09:46.918Z,1.98
2023-02-26T09:12:13.665Z,1.70
2023-02-26T09:14:40.493Z,1.70
2023-02-26T09:17:07.172Z,1.60
2023-02-26T09:19:33.945Z,1.50
2023-02-26T09:22:00.786Z,1.30
2023-02-26T09:24:27.614Z,1.60
2023-02-26T09:26:54.419Z,1.70
2023-02-26T09:29:21.193Z,1.90
2023-02-26T09:31:48.083Z,1.90
2023-02-26T09:34:15.148Z,1.95
2023-02-26T09:36:43.798Z,1.92
2023-02-26T09:39:10.601Z,3.55
2023-02-26T09:41:49.933Z,1.90
2023-02-26T09:44:23.418Z,1.80
2023-02-26T09:47:22.703Z,1.70
2023-02-26T09:50:11.762Z,1.63
2023-02-26T09:52:38.690Z,1.67
2023-02-26T09:55:21.177Z,1.80
2023-02-26T09:57:51.486Z,1.75
2023-02-26T10:00:33.061Z,2.00
2023-02-26T10:03:26.017Z,2.00
2023-02-26T10:06:09.838Z,2.15
2023-02-26T10:09:04.834Z,2.47
2023-02-26T10:12:00.882Z,2.20
2023-02-26T10:14:50.878Z,2.00
2023-02-26T10:17:41.069Z,2.08
2023-02-26T10:20:36.806Z,1.83
2023-02-26T10:23:17.228Z,1.90
2023-02-26T10:25:50.193Z,2.95
2023-02-26T10:28:35.700Z,2.03
2023-02-26T10:31:35.698Z,1.70
2023-02-26T10:34:14.614Z,1.70
2023-02-26T10:36:52.203Z,1.90
2023-02-26T10:39:27.242Z,1.73
2023-02-26T10:41:54.002Z,1.80
2023-02-26T10:44:27.890Z,1.90
2023-02-26T10:47:36.143Z,1.65
2023-02-26T10:50:13.280Z,1.75
2023-02-26T10:52:43.317Z,1.90
2023-02-26T10:55:40.933Z,3.15
2023-02-26T10:58:22.148Z,1.90
2023-02-26T11:00:53.849Z,1.90
2023-02-26T11:03:30.680Z,1.85
2023-02-26T11:05:57.807Z,1.70
2023-02-26T11:08:32.182Z,1.95
2023-02-26T11:11:04.394Z,1.90
2023-02-26T11:13:34.564Z,1.90
2023-02-26T11:16:21.553Z,1.80
2023-02-26T11:18:53.430Z,2.00
2023-02-26T11:21:35.131Z,1.90
2023-02-26T11:24:07.231Z,1.85
2023-02-26T11:26:38.728Z,1.90
2023-02-26T11:29:06.315Z,1.95
2023-02-26T11:31:33.841Z,1.73
2023-02-26T11:34:08.918Z,2.10
2023-02-26T11:36:40.136Z,2.22
2023-02-26T11:39:26.857Z,2.25
2023-02-26T11:41:57.573Z,2.00
2023-02-26T11:44:38.466Z,3.00
2023-02-26T11:47:11.329Z,3.33
2023-02-26T11:49:44.386Z,2.22
2023-02-26T11:52:11.341Z,1.70
2023-02-26T11:54:39.664Z,1.95
2023-02-26T11:57:13.142Z,2.00
2023-02-26T11:59:40.991Z,1.85
2023-02-26T12:02:15.424Z,1.90
2023-02-26T12:04:49.410Z,1.92
2023-02-26T12:07:17.524Z,1.92
2023-02-26T12:09:45.848Z,1.88
2023-02-26T12:12:18.760Z,1.88
2023-02-26T12:15:13.995Z,1.60
2023-02-26T12:18:02.317Z,1.90
2023-02-26T12:20:32.128Z,1.77
2023-02-26T12:22:58.833Z,1.70
2023-02-26T12:25:44.996Z,1.80
2023-02-26T12:28:39.506Z,1.80
2023-02-26T12:31:21.557Z,1.83
2023-02-26T12:34:10.220Z,2.15
2023-02-26T12:37:08.985Z,1.67
2023-02-26T12:40:06.587Z,1.70
2023-02-26T12:42:51.366Z,1.55
2023-02-26T12:45:33.277Z,2.00
2023-02-26T12:48:12.315Z,1.40
2023-02-26T12:51:02.511Z,1.50
2023-02-26T12:53:37.880Z,1.50
2023-02-26T12:56:24.437Z,1.38
2023-02-26T12:59:19.120Z,1.45
2023-02-26T13:02:01.623Z,1.38
2023-02-26T13:04:43.599Z,1.40
2023-02-26T13:07:40.206Z,1.40
2023-02-26T13:10:37.384Z,1.52
2023-02-26T13:13:04.101Z,1.80
2023-02-26T13:15:36.994Z,2.20
2023-02-26T13:18:18.543Z,2.05
2023-02-26T13:21:20.016Z,1.90
2023-02-26T13:23:57.562Z,1.50
2023-02-26T13:26:27.487Z,1.67
2023-02-26T13:29:02.996Z,1.67
2023-02-26T13:31:42.217Z,1.48
2023-02-26T13:34:33.681Z,1.50
2023-02-26T13:37:01.082Z,1.30
2023-02-26T13:39:36.769Z,1.20
2023-02-26T13:42:18.440Z,1.17
2023-02-26T13:45:07.967Z,1.33
2023-02-26T13:48:01.617Z,1.90
2023-02-26T13:50:33.788Z,1.73
2023-02-26T13:53:28.019Z,1.55
2023-02-26T13:56:05.604Z,1.27
2023-02-26T13:58:37.713Z,1.10
2023-02-26T14:01:04.650Z,1.08
2023-02-26T14:03:35.192Z,1.38
2023-02-26T14:08:41.099Z,1.10
2023-02-26T14:11:22.959Z,1.08
2023-02-26T14:14:27.374Z,0.80
2023-02-26T14:17:07.253Z,0.90
2023-02-26T14:19:45.293Z,0.75
2023-02-26T14:22:25.848Z,0.70
2023-02-26T14:27:42.222Z,0.70
2023-02-26T14:30:09.053Z,0.97
2023-02-26T14:32:36.009Z,0.80
2023-02-26T14:35:22.370Z,1.70
2023-02-26T14:37:59.209Z,1.05
2023-02-26T14:40:29.674Z,0.70
2023-02-26T14:45:36.465Z,0.80
2023-02-26T14:48:06.517Z,0.80
2023-02-26T14:51:15.929Z,1.50
2023-02-26T14:53:51.710Z,1.55
2023-02-26T14:56:34.355Z,1.85
2023-02-26T14:59:09.968Z,1.55
2023-02-26T15:01:54.476Z,0.80
2023-02-26T15:05:06.258Z,1.65
2023-02-26T15:08:00.866Z,1.20
2023-02-26T15:10:53.895Z,0.60
2023-02-26T15:13:46.873Z,0.60
2023-02-26T15:16:42.938Z,0.50
2023-02-26T15:19:30.793Z,0.70
2023-02-26T15:22:40.122Z,0.93
2023-02-26T15:25:27.765Z,1.27
2023-02-26T15:27:54.872Z,0.70
2023-02-26T15:30:24.033Z,0.82
2023-02-26T15:32:56.881Z,0.70
2023-02-26T15:35:23.992Z,0.70
2023-02-26T15:37:57.164Z,0.70
2023-02-26T15:40:26.071Z,0.55
2023-02-26T15:42:55.880Z,0.60
2023-02-26T15:45:28.366Z,0.50
2023-02-26T15:48:04.349Z,0.70
2023-02-26T15:53:04.135Z,0.60
2023-02-26T15:55:37.786Z,0.70
2023-02-26T15:58:08.334Z,0.80
2023-02-26T16:00:37.254Z,0.70
2023-02-26T16:03:04.928Z,0.63
2023-02-26T16:05:32.434Z,0.77
2023-02-26T16:08:00.322Z,0.80
2023-02-26T16:10:38.291Z,1.35
2023-02-26T16:13:07.418Z,0.73
2023-02-26T16:15:38.872Z,1.00
2023-02-26T16:18:09.945Z,0.98
2023-02-26T16:20:41.774Z,0.90
2023-02-26T16:23:23.381Z,0.90
2023-02-26T16:26:01.480Z,0.90
2023-02-26T16:28:33.119Z,0.80
2023-02-26T16:31:04.572Z,1.10
2023-02-26T16:33:34.885Z,0.90
2023-02-26T16:36:12.347Z,1.08
2023-02-26T16:38:49.699Z,1.85
2023-02-26T16:41:16.744Z,1.25
2023-02-26T16:43:49.280Z,1.08
2023-02-26T16:46:46.099Z,2.10
2023-02-26T16:49:22.482Z,1.20
2023-02-26T16:51:51.583Z,1.10
2023-02-26T16:54:20.913Z,1.00
2023-02-26T16:56:52.502Z,1.00
2023-02-26T16:59:21.250Z,1.00
2023-02-26T17:02:05.418Z,1.50
2023-02-26T17:04:35.922Z,0.90
2023-02-26T17:07:14.810Z,1.33
2023-02-26T17:09:49.410Z,1.00
2023-02-26T17:12:21.374Z,1.05
2023-02-26T17:15:28.236Z,0.80
2023-02-26T17:17:58.154Z,1.10
2023-02-26T17:20:27.825Z,0.90
2023-02-26T17:22:56.331Z,0.98
2023-02-26T17:25:27.053Z,1.17
2023-02-26T17:27:55.651Z,1.08
2023-02-26T17:30:30.288Z,1.10
2023-02-26T17:32:58.261Z,1.25
2023-02-26T17:35:25.928Z,1.10
2023-02-26T17:37:54.190Z,1.70
2023-02-26T17:40:23.043Z,1.40
2023-02-26T17:42:51.950Z,1.40
2023-02-26T17:45:20.416Z,1.25
2023-02-26T17:47:48.984Z,1.10
2023-02-26T17:50:40.978Z,1.10
2023-02-26T17:53:08.826Z,1.13
2023-02-26T17:55:39.244Z,1.17
2023-02-26T18:00:39.796Z,1.00
2023-02-26T18:03:07.130Z,1.00
2023-02-26T18:05:39.266Z,1.00
2023-02-26T18:08:07.171Z,1.15
2023-02-26T18:10:34.642Z,1.00
2023-02-26T18:13:05.957Z,1.00
2023-02-26T18:15:34.326Z,1.10
2023-02-26T18:18:01.839Z,1.02
2023-02-26T18:20:30.186Z,1.20
2023-02-26T18:22:57.616Z,1.10
2023-02-26T18:25:27.526Z,1.00
2023-02-26T18:28:03.036Z,0.95
2023-02-26T18:30:33.642Z,1.10
2023-02-26T18:33:05.790Z,0.90
2023-02-26T18:35:33.052Z,0.90
2023-02-26T18:38:00.615Z,0.80
2023-02-26T18:40:28.085Z,0.98
2023-02-26T18:42:54.965Z,0.90
2023-02-26T18:45:21.787Z,0.77
2023-02-26T18:47:48.689Z,0.95
2023-02-26T18:50:18.295Z,1.00
2023-02-26T18:52:45.202Z,0.90
2023-02-26T18:55:12.891Z,1.00
2023-02-26T18:57:42.438Z,1.10
2023-02-26T19:00:13.931Z,0.90
2023-02-26T19:02:43.540Z,1.00
2023-02-26T19:05:12.210Z,0.90
2023-02-26T19:07:39.788Z,1.30
2023-02-26T19:10:09.450Z,1.00
2023-02-26T19:12:36.466Z,0.98
2023-02-26T19:15:04.021Z,1.05
2023-02-26T19:17:50.258Z,1.00
2023-02-26T19:20:17.706Z,1.00
2023-02-26T19:22:46.650Z,1.02
2023-02-26T19:25:13.464Z,1.00
2023-02-26T19:27:51.630Z,1.00
2023-02-26T19:30:32.192Z,0.90
2023-02-26T19:32:59.270Z,0.90
2023-02-26T19:35:27.130Z,1.00
2023-02-26T19:37:54.318Z,0.98
2023-02-26T19:40:21.248Z,1.00
2023-02-26T19:42:48.418Z,0.90
2023-02-26T19:45:15.903Z,0.80
2023-02-26T19:47:43.236Z,1.00
2023-02-26T19:50:10.995Z,1.00
2023-02-26T19:52:38.343Z,0.88
2023-02-26T19:55:07.692Z,0.90
2023-02-26T19:57:35.070Z,1.00
2023-02-26T20:00:03.756Z,0.98
2023-02-26T20:02:39.135Z,0.93
2023-02-26T20:05:07.616Z,0.80
2023-02-26T20:07:34.652Z,0.90
2023-02-26T20:10:01.677Z,0.90
2023-02-26T20:12:30.328Z,0.90
2023-02-26T20:14:57.652Z,1.00
2023-02-26T20:17:24.596Z,0.90
2023-02-26T20:19:51.615Z,0.90
2023-02-26T20:22:25.081Z,1.02
2023-02-26T20:24:53.147Z,1.10
2023-02-26T20:27:21.394Z,1.00
2023-02-26T20:29:50.952Z,0.82
2023-02-26T20:32:18.258Z,1.10
2023-02-26T20:34:45.169Z,1.10
2023-02-26T20:37:12.098Z,0.90
2023-02-26T20:39:39.110Z,0.90
2023-02-26T20:42:06.320Z,1.00
2023-02-26T20:44:33.983Z,1.10
2023-02-26T20:47:08.919Z,0.70
2023-02-26T20:49:36.736Z,1.10
2023-02-26T20:52:04.185Z,1.20
2023-02-26T20:54:31.605Z,1.00
2023-02-26T20:56:58.477Z,0.90
2023-02-26T20:59:25.448Z,0.73
2023-02-26T21:01:53.937Z,0.70
2023-02-26T21:04:21.274Z,1.40
2023-02-26T21:06:48.502Z,0.95
2023-02-26T21:09:16.211Z,0.90
2023-02-26T21:11:43.561Z,1.10
2023-02-26T21:14:37.297Z,0.80
2023-02-26T21:17:15.995Z,0.80
2023-02-26T21:19:43.333Z,0.90
2023-02-26T21:22:11.505Z,1.08
2023-02-26T21:24:38.862Z,1.00
2023-02-26T21:27:06.918Z,1.10
2023-02-26T21:30:15.428Z,1.25
2023-02-26T21:32:43.081Z,1.10
2023-02-26T21:35:15.747Z,0.80
2023-02-26T21:37:44.258Z,0.80
2023-02-26T21:40:13.322Z,0.77
2023-02-26T21:42:40.785Z,0.80
2023-02-26T21:45:08.428Z,0.90
2023-02-26T21:47:35.286Z,0.80
2023-02-26T21:50:02.109Z,0.90
2023-02-26T21:52:29.051Z,0.82
2023-02-26T21:54:59.714Z,1.00
2023-02-26T21:59:53.866Z,0.90
2023-02-26T22:02:20.653Z,0.80
2023-02-26T22:04:47.544Z,0.90
2023-02-26T22:07:14.494Z,0.80
2023-02-26T22:09:41.906Z,1.00
2023-02-26T22:12:08.675Z,0.80
2023-02-26T22:14:36.879Z,1.10
2023-02-26T22:17:03.809Z,0.82
2023-02-26T22:19:30.551Z,1.20
2023-02-26T22:21:57.546Z,1.10
2023-02-26T22:24:24.425Z,1.48
2023-02-26T22:26:51.164Z,1.35
2023-02-26T22:29:19.400Z,1.45
2023-02-26T22:31:47.393Z,1.20
2023-02-26T22:34:14.846Z,1.10
2023-02-26T22:36:41.707Z,1.00
2023-02-26T22:39:11.429Z,1.20
2023-02-26T22:41:38.184Z,1.00
2023-02-26T22:44:05.367Z,0.82
2023-02-26T22:46:32.481Z,0.98
2023-02-26T22:48:59.429Z,0.90
2023-02-26T22:51:28.393Z,0.88
2023-02-26T22:53:56.001Z,0.80
2023-02-26T22:56:22.852Z,1.00
2023-02-26T22:58:49.671Z,0.90
2023-02-26T23:01:16.773Z,0.73
2023-02-26T23:03:43.786Z,0.80
2023-02-26T23:06:10.920Z,0.90
2023-02-26T23:08:38.145Z,0.90
2023-02-26T23:11:05.920Z,0.80
2023-02-26T23:13:35.598Z,0.90
2023-02-26T23:16:08.174Z,0.93
2023-02-26T23:18:36.535Z,0.75
2023-02-26T23:21:05.468Z,0.70
2023-02-26T23:23:33.492Z,0.75
2023-02-26T23:26:00.454Z,1.05
2023-02-26T23:28:27.373Z,0.70
2023-02-26T23:30:54.395Z,0.90
2023-02-26T23:33:21.332Z,0.88
2023-02-26T23:35:48.730Z,0.80
2023-02-26T23:38:15.863Z,0.60
2023-02-26T23:40:42.800Z,0.70
2023-02-26T23:43:09.999Z,0.70
2023-02-26T23:45:37.037Z,1.00
2023-02-26T23:48:04.268Z,0.80
2023-02-26T23:50:31.325Z,0.85
2023-02-26T23:52:58.233Z,0.90
2023-02-26T23:55:25.156Z,0.90
2023-02-26T23:57:52.252Z,0.80
